createdAt,value
2023-04-15T00:01:24.261Z,16.87
2023-04-15T00:03:55.442Z,16.92
2023-04-15T00:06:22.863Z,16.93
2023-04-15T00:08:52.472Z,16.97
2023-04-15T00:11:20.314Z,16.99
2023-04-15T00:13:47.560Z,17.02
2023-04-15T00:16:14.836Z,17.00
2023-04-15T00:18:41.902Z,16.95
2023-04-15T00:21:09.723Z,16.97
2023-04-15T00:23:39.714Z,17.03
2023-04-15T00:26:10.061Z,17.00
2023-04-15T00:28:37.510Z,17.02
2023-04-15T00:31:04.565Z,16.98
2023-04-15T00:33:32.001Z,16.97
2023-04-15T00:36:00.561Z,16.95
2023-04-15T00:38:28.264Z,16.95
2023-04-15T00:40:56.571Z,16.95
2023-04-15T00:43:23.847Z,16.97
2023-04-15T00:45:53.841Z,16.94
2023-04-15T00:48:21.285Z,16.92
2023-04-15T00:50:52.115Z,16.90
2023-04-15T00:53:19.243Z,16.90
2023-04-15T00:55:46.346Z,16.87
2023-04-15T00:58:13.348Z,16.85
2023-04-15T01:00:43.557Z,16.86
2023-04-15T01:03:12.030Z,16.82
2023-04-15T01:05:39.468Z,16.79
2023-04-15T01:08:09.909Z,16.80
2023-04-15T01:10:38.026Z,16.78
2023-04-15T01:13:05.301Z,16.75
2023-04-15T01:15:33.586Z,16.74
2023-04-15T01:18:03.362Z,16.75
2023-04-15T01:20:34.685Z,16.77
2023-04-15T01:23:02.679Z,16.74
2023-04-15T01:25:34.485Z,16.71
2023-04-15T01:28:02.268Z,16.66
2023-04-15T01:30:30.137Z,16.60
2023-04-15T01:32:57.577Z,16.56
2023-04-15T01:35:25.109Z,16.57
2023-04-15T01:37:53.010Z,16.52
2023-04-15T01:40:20.802Z,16.49
2023-04-15T01:42:47.984Z,16.49
2023-04-15T01:45:15.749Z,16.47
2023-04-15T01:47:43.758Z,16.44
2023-04-15T01:50:11.384Z,16.43
2023-04-15T01:52:40.373Z,16.42
2023-04-15T01:55:08.670Z,16.39
2023-04-15T01:57:35.954Z,16.36
2023-04-15T02:00:04.869Z,16.31
2023-04-15T02:02:40.384Z,16.26
2023-04-15T02:05:11.159Z,16.26
2023-04-15T02:07:38.239Z,16.22
2023-04-15T02:10:05.677Z,16.23
2023-04-15T02:12:36.056Z,16.23
2023-04-15T02:15:03.104Z,16.23
2023-04-15T02:17:39.021Z,16.22
2023-04-15T02:20:08.818Z,16.21
2023-04-15T02:22:35.834Z,16.20
2023-04-15T02:25:02.834Z,16.12
2023-04-15T02:27:32.894Z,16.13
2023-04-15T02:30:02.983Z,16.11
2023-04-15T02:32:30.324Z,16.09
2023-04-15T02:34:57.300Z,16.08
2023-04-15T02:37:28.779Z,16.05
2023-04-15T02:40:00.723Z,16.02
2023-04-15T02:42:29.017Z,16.02
2023-04-15T02:44:56.569Z,15.98
2023-04-15T02:47:29.383Z,15.96
2023-04-15T02:49:58.670Z,15.93
2023-04-15T02:52:29.164Z,15.92
2023-04-15T02:55:00.712Z,15.88
2023-04-15T02:57:31.324Z,15.87
2023-04-15T03:00:06.497Z,15.82
2023-04-15T03:02:39.439Z,15.81
2023-04-15T03:05:07.524Z,15.76
2023-04-15T03:07:34.432Z,15.76
2023-04-15T03:10:02.988Z,15.68
2023-04-15T03:12:31.118Z,15.67
2023-04-15T03:14:58.820Z,15.65
2023-04-15T03:17:33.955Z,15.61
2023-04-15T03:20:03.969Z,15.56
2023-04-15T03:22:34.505Z,15.50
2023-04-15T03:25:02.754Z,15.48
2023-04-15T03:27:29.690Z,15.47
2023-04-15T03:30:00.313Z,15.46
2023-04-15T03:32:30.902Z,15.45
2023-04-15T03:34:58.071Z,15.43
2023-04-15T03:37:24.941Z,15.40
2023-04-15T03:39:51.904Z,15.36
2023-04-15T03:42:18.850Z,15.36
2023-04-15T03:44:45.972Z,15.27
2023-04-15T03:47:13.265Z,15.28
2023-04-15T03:49:40.239Z,15.24
2023-04-15T03:52:07.195Z,15.22
2023-04-15T03:54:34.145Z,15.22
2023-04-15T03:57:01.462Z,15.19
2023-04-15T03:59:28.478Z,15.17
2023-04-15T04:01:55.706Z,15.15
2023-04-15T04:04:22.901Z,15.13
2023-04-15T04:06:49.933Z,15.09
2023-04-15T04:09:17.017Z,15.07
2023-04-15T04:11:45.638Z,15.07
2023-04-15T04:14:12.538Z,15.08
2023-04-15T04:16:39.521Z,15.08
2023-04-15T04:19:06.452Z,15.03
2023-04-15T04:21:34.330Z,15.01
2023-04-15T04:24:01.446Z,14.98
2023-04-15T04:26:28.329Z,14.98
2023-04-15T04:28:55.480Z,14.97
2023-04-15T04:31:22.558Z,14.96
2023-04-15T04:33:49.540Z,14.97
2023-04-15T04:36:16.540Z,14.97
2023-04-15T04:38:43.481Z,14.95
2023-04-15T04:41:10.752Z,14.94
2023-04-15T04:43:37.637Z,14.93
2023-04-15T04:46:04.613Z,14.92
2023-04-15T04:48:31.713Z,14.92
2023-04-15T04:50:59.349Z,14.90
2023-04-15T04:53:26.520Z,14.87
2023-04-15T04:55:53.632Z,14.84
2023-04-15T04:58:20.792Z,14.78
2023-04-15T05:00:48.061Z,14.77
2023-04-15T05:03:15.247Z,14.77
2023-04-15T05:05:42.604Z,14.78
2023-04-15T05:08:09.595Z,14.73
2023-04-15T05:10:36.613Z,14.74
2023-04-15T05:13:03.646Z,14.77
2023-04-15T05:15:30.747Z,14.72
2023-04-15T05:17:57.802Z,14.73
2023-04-15T05:20:24.937Z,14.73
2023-04-15T05:22:51.937Z,14.72
2023-04-15T05:25:19.459Z,14.72
2023-04-15T05:27:46.514Z,14.76
2023-04-15T05:30:13.943Z,14.74
2023-04-15T05:32:41.016Z,14.73
2023-04-15T05:35:08.690Z,14.73
2023-04-15T05:37:35.662Z,14.78
2023-04-15T05:40:02.799Z,14.80
2023-04-15T05:42:29.816Z,14.82
2023-04-15T05:44:56.797Z,14.87
2023-04-15T05:47:23.963Z,14.90
2023-04-15T05:49:51.157Z,14.93
2023-04-15T05:52:18.217Z,14.91
2023-04-15T05:54:45.427Z,14.98
2023-04-15T05:57:12.908Z,15.36
2023-04-15T05:59:39.808Z,16.18
2023-04-15T06:02:07.688Z,16.95
2023-04-15T06:04:34.819Z,17.73
2023-04-15T06:07:01.908Z,18.43
2023-04-15T06:09:31.881Z,18.99
2023-04-15T06:11:59.326Z,19.58
2023-04-15T06:14:26.285Z,20.21
2023-04-15T06:16:53.227Z,20.91
2023-04-15T06:19:20.739Z,21.49
2023-04-15T06:21:47.736Z,21.81
2023-04-15T06:24:14.833Z,21.85
2023-04-15T06:26:41.771Z,21.91
2023-04-15T06:29:08.898Z,21.99
2023-04-15T06:31:36.044Z,22.25
2023-04-15T06:34:03.102Z,22.69
2023-04-15T06:36:30.129Z,23.29
2023-04-15T06:38:57.357Z,23.78
2023-04-15T06:41:24.746Z,24.50
2023-04-15T06:43:51.752Z,25.16
2023-04-15T06:46:19.058Z,25.71
2023-04-15T06:48:46.264Z,26.10
2023-04-15T06:51:13.415Z,26.24
2023-04-15T06:53:42.358Z,26.29
2023-04-15T06:56:09.835Z,26.39
2023-04-15T06:58:37.297Z,26.96
2023-04-15T07:01:04.618Z,27.23
2023-04-15T07:03:32.843Z,27.76
2023-04-15T07:06:00.123Z,28.23
2023-04-15T07:08:27.068Z,28.46
2023-04-15T07:10:54.563Z,29.03
2023-04-15T07:13:21.932Z,29.45
2023-04-15T07:15:48.873Z,29.81
2023-04-15T07:18:16.127Z,30.14
2023-04-15T07:20:43.957Z,30.44
2023-04-15T07:23:10.912Z,30.97
2023-04-15T07:25:37.962Z,31.49
2023-04-15T07:28:05.097Z,32.01
2023-04-15T07:30:32.094Z,32.45
2023-04-15T07:32:59.490Z,32.84
2023-04-15T07:35:26.709Z,33.34
2023-04-15T07:37:53.671Z,33.65
2023-04-15T07:40:20.887Z,33.88
2023-04-15T07:42:49.706Z,33.82
2023-04-15T07:45:17.031Z,34.26
2023-04-15T07:47:44.207Z,34.58
2023-04-15T07:50:14.855Z,34.84
2023-04-15T07:52:42.194Z,34.77
2023-04-15T07:55:09.839Z,35.41
2023-04-15T07:57:37.752Z,35.66
2023-04-15T08:00:09.005Z,36.14
2023-04-15T08:02:43.121Z,36.49
2023-04-15T08:05:11.444Z,36.73
2023-04-15T08:07:38.614Z,37.13
2023-04-15T08:10:06.701Z,37.16
2023-04-15T08:12:33.755Z,37.45
2023-04-15T08:15:02.159Z,37.60
2023-04-15T08:17:29.204Z,37.71
2023-04-15T08:19:56.222Z,37.61
2023-04-15T08:22:24.078Z,38.04
2023-04-15T08:24:51.535Z,38.08
2023-04-15T08:27:19.056Z,38.07
2023-04-15T08:29:46.057Z,38.24
2023-04-15T08:32:13.128Z,37.91
2023-04-15T08:34:40.325Z,38.13
2023-04-15T08:37:07.268Z,38.75
2023-04-15T08:39:37.155Z,39.16
2023-04-15T08:42:08.321Z,38.67
2023-04-15T08:44:39.169Z,39.33
2023-04-15T08:47:08.828Z,39.48
2023-04-15T08:49:43.167Z,39.63
2023-04-15T08:52:10.670Z,39.90
2023-04-15T08:54:38.917Z,40.31
2023-04-15T08:57:06.904Z,40.32
2023-04-15T08:59:33.797Z,40.20
2023-04-15T09:02:01.406Z,40.26
2023-04-15T09:04:29.064Z,40.29
2023-04-15T09:06:57.381Z,39.67
2023-04-15T09:09:24.417Z,39.07
2023-04-15T09:11:52.264Z,39.64
2023-04-15T09:14:19.215Z,39.64
2023-04-15T09:16:59.997Z,40.04
2023-04-15T09:19:27.280Z,38.96
2023-04-15T09:21:58.942Z,39.60
2023-04-15T09:24:33.912Z,39.90
2023-04-15T09:27:01.211Z,39.51
2023-04-15T09:29:28.159Z,39.53
2023-04-15T09:31:55.513Z,39.34
2023-04-15T09:34:36.317Z,39.38
2023-04-15T09:37:04.244Z,39.24
2023-04-15T09:39:52.696Z,38.59
2023-04-15T09:42:27.020Z,39.06
2023-04-15T09:44:54.204Z,38.60
2023-04-15T09:47:29.142Z,38.31
2023-04-15T09:49:57.896Z,38.24
2023-04-15T09:52:24.868Z,37.62
2023-04-15T09:54:55.528Z,37.79
2023-04-15T09:57:23.763Z,36.38
2023-04-15T09:59:53.558Z,35.93
2023-04-15T10:02:23.654Z,35.74
2023-04-15T10:04:52.773Z,34.89
2023-04-15T10:07:22.586Z,33.82
2023-04-15T10:09:50.147Z,33.46
2023-04-15T10:12:20.400Z,32.23
2023-04-15T10:15:00.184Z,31.53
2023-04-15T10:17:33.910Z,31.80
2023-04-15T10:20:05.493Z,31.89
2023-04-15T10:22:33.371Z,31.33
2023-04-15T10:25:01.290Z,30.62
2023-04-15T10:27:29.141Z,30.42
2023-04-15T10:29:57.335Z,30.16
2023-04-15T10:32:25.907Z,30.06
2023-04-15T10:34:54.724Z,29.88
2023-04-15T10:37:33.324Z,29.58
2023-04-15T10:40:00.237Z,27.91
2023-04-15T10:42:35.149Z,27.20
2023-04-15T10:45:02.133Z,26.41
2023-04-15T10:47:29.177Z,26.39
2023-04-15T10:50:01.251Z,26.45
2023-04-15T10:52:29.548Z,26.37
2023-04-15T10:55:16.065Z,26.31
2023-04-15T10:57:43.871Z,25.86
2023-04-15T11:00:11.635Z,25.55
2023-04-15T11:02:45.378Z,25.28
2023-04-15T11:05:16.845Z,24.69
2023-04-15T11:07:49.538Z,24.31
2023-04-15T11:10:26.013Z,24.04
2023-04-15T11:13:00.045Z,24.04
2023-04-15T11:15:45.915Z,23.55
2023-04-15T11:18:14.237Z,23.77
2023-04-15T11:20:45.657Z,23.89
2023-04-15T11:23:14.801Z,23.21
2023-04-15T11:25:44.092Z,23.54
2023-04-15T11:28:12.738Z,23.68
2023-04-15T11:30:40.963Z,23.88
2023-04-15T11:33:10.901Z,23.93
2023-04-15T11:35:38.561Z,24.16
2023-04-15T11:38:08.911Z,23.53
2023-04-15T11:40:36.316Z,22.68
2023-04-15T11:43:20.398Z,21.94
2023-04-15T11:45:57.578Z,21.03
2023-04-15T11:48:29.546Z,21.22
2023-04-15T11:51:04.938Z,21.35
2023-04-15T11:53:48.146Z,21.29
2023-04-15T11:56:23.116Z,21.17
2023-04-15T11:58:58.721Z,21.11
2023-04-15T12:01:52.575Z,20.91
2023-04-15T12:04:25.247Z,20.52
2023-04-15T12:06:53.227Z,20.64
2023-04-15T12:09:21.315Z,20.26
2023-04-15T12:11:53.990Z,20.24
2023-04-15T12:14:34.187Z,20.13
2023-04-15T12:17:06.289Z,20.37
2023-04-15T12:19:45.647Z,20.49
2023-04-15T12:22:15.997Z,20.09
2023-04-15T12:24:47.119Z,20.19
2023-04-15T12:27:16.112Z,20.17
2023-04-15T12:29:44.084Z,20.08
2023-04-15T12:32:12.909Z,20.14
2023-04-15T12:34:40.847Z,20.16
2023-04-15T12:37:10.974Z,19.75
2023-04-15T12:39:44.106Z,19.92
2023-04-15T12:42:12.275Z,20.05
2023-04-15T12:44:40.453Z,20.04
2023-04-15T12:47:08.835Z,20.12
2023-04-15T12:49:35.792Z,19.79
2023-04-15T12:52:03.927Z,19.57
2023-04-15T12:54:31.937Z,19.66
2023-04-15T12:57:00.042Z,19.61
2023-04-15T12:59:27.052Z,19.99
2023-04-15T13:01:54.973Z,20.06
2023-04-15T13:04:22.490Z,19.93
2023-04-15T13:06:49.981Z,19.68
2023-04-15T13:09:16.990Z,19.89
2023-04-15T13:11:44.233Z,19.89
2023-04-15T13:14:13.920Z,19.78
2023-04-15T13:16:47.662Z,19.50
2023-04-15T13:19:14.950Z,19.58
2023-04-15T13:21:41.829Z,19.56
2023-04-15T13:24:10.295Z,19.31
2023-04-15T13:26:37.978Z,19.43
2023-04-15T13:29:05.025Z,19.20
2023-04-15T13:31:32.222Z,19.16
2023-04-15T13:33:59.304Z,18.84
2023-04-15T13:36:27.379Z,18.67
2023-04-15T13:38:54.657Z,18.49
2023-04-15T13:41:22.063Z,18.53
2023-04-15T13:43:49.019Z,18.58
2023-04-15T13:46:16.185Z,18.36
2023-04-15T13:48:43.321Z,18.04
2023-04-15T13:51:10.496Z,17.99
2023-04-15T13:53:38.428Z,18.06
2023-04-15T13:56:10.157Z,17.88
2023-04-15T13:58:37.869Z,17.74
2023-04-15T14:01:06.935Z,17.83
2023-04-15T14:03:38.314Z,17.96
2023-04-15T14:06:06.514Z,18.00
2023-04-15T14:08:33.861Z,18.26
2023-04-15T14:11:01.055Z,18.25
2023-04-15T14:13:28.077Z,17.96
2023-04-15T14:15:55.561Z,17.81
2023-04-15T14:18:22.655Z,17.77
2023-04-15T14:20:49.928Z,17.92
2023-04-15T14:23:16.925Z,18.04
2023-04-15T14:25:45.518Z,17.88
2023-04-15T14:28:13.833Z,17.95
2023-04-15T14:30:40.964Z,17.69
2023-04-15T14:33:08.006Z,17.77
2023-04-15T14:35:37.083Z,17.61
2023-04-15T14:38:04.204Z,17.59
2023-04-15T14:40:31.355Z,17.69
2023-04-15T14:42:58.305Z,17.69
2023-04-15T14:45:25.553Z,17.58
2023-04-15T14:47:53.408Z,17.43
2023-04-15T14:50:20.491Z,17.36
2023-04-15T14:52:47.619Z,17.18
2023-04-15T14:55:14.639Z,16.99
2023-04-15T14:57:42.880Z,17.07
2023-04-15T15:00:13.769Z,17.12
2023-04-15T15:02:43.750Z,17.14
2023-04-15T15:05:12.172Z,16.90
2023-04-15T15:07:41.121Z,16.99
2023-04-15T15:10:08.559Z,17.14
2023-04-15T15:12:35.891Z,17.00
2023-04-15T15:15:12.237Z,16.95
2023-04-15T15:17:39.818Z,16.70
2023-04-15T15:20:09.642Z,16.68
2023-04-15T15:22:36.606Z,16.84
2023-04-15T15:25:03.747Z,16.73
2023-04-15T15:27:30.753Z,16.74
2023-04-15T15:29:58.639Z,16.87
2023-04-15T15:32:25.921Z,16.87
2023-04-15T15:34:53.443Z,16.73
2023-04-15T15:37:20.449Z,16.73
2023-04-15T15:39:48.279Z,16.46
2023-04-15T15:42:15.516Z,16.38
2023-04-15T15:44:42.519Z,16.33
2023-04-15T15:47:09.576Z,16.43
2023-04-15T15:49:36.645Z,16.51
2023-04-15T15:52:03.611Z,16.65
2023-04-15T15:54:30.621Z,16.57
2023-04-15T15:56:57.684Z,16.57
2023-04-15T15:59:25.662Z,16.47
2023-04-15T16:01:52.871Z,16.63
2023-04-15T16:04:20.188Z,16.48
2023-04-15T16:06:47.494Z,16.64
2023-04-15T16:09:14.943Z,16.53
2023-04-15T16:11:41.959Z,16.60
2023-04-15T16:14:08.919Z,16.45
2023-04-15T16:16:36.039Z,16.32
2023-04-15T16:19:03.156Z,16.34
2023-04-15T16:21:31.285Z,16.32
2023-04-15T16:23:58.288Z,16.40
2023-04-15T16:26:25.262Z,16.32
2023-04-15T16:28:52.173Z,16.44
2023-04-15T16:31:19.070Z,16.40
2023-04-15T16:33:46.263Z,16.31
2023-04-15T16:36:13.247Z,16.64
2023-04-15T16:38:40.202Z,16.47
2023-04-15T16:41:07.275Z,16.73
2023-04-15T16:43:34.166Z,16.89
2023-04-15T16:46:01.354Z,16.91
2023-04-15T16:48:28.423Z,16.96
2023-04-15T16:50:55.432Z,16.61
2023-04-15T16:53:22.383Z,16.62
2023-04-15T16:55:49.359Z,16.74
2023-04-15T16:58:16.434Z,16.86
2023-04-15T17:00:43.486Z,16.94
2023-04-15T17:03:10.840Z,16.97
2023-04-15T17:05:38.258Z,17.08
2023-04-15T17:08:05.893Z,17.16
2023-04-15T17:10:32.855Z,17.22
2023-04-15T17:13:00.138Z,17.21
2023-04-15T17:15:27.301Z,17.10
2023-04-15T17:17:54.683Z,16.99
2023-04-15T17:20:21.771Z,17.21
2023-04-15T17:22:49.223Z,17.30
2023-04-15T17:25:16.199Z,17.30
2023-04-15T17:27:43.160Z,17.39
2023-04-15T17:30:10.861Z,17.41
2023-04-15T17:32:39.505Z,17.27
2023-04-15T17:35:07.395Z,17.27
2023-04-15T17:37:35.362Z,17.28
2023-04-15T17:40:02.467Z,17.35
2023-04-15T17:42:29.447Z,17.44
2023-04-15T17:44:56.433Z,17.47
2023-04-15T17:47:23.425Z,17.46
2023-04-15T17:49:50.576Z,17.46
2023-04-15T17:52:17.770Z,17.54
2023-04-15T17:54:46.208Z,17.58
2023-04-15T17:57:13.186Z,17.57
2023-04-15T17:59:44.108Z,17.54
2023-04-15T18:02:11.719Z,17.56
2023-04-15T18:04:39.624Z,17.60
2023-04-15T18:07:06.784Z,17.63
2023-04-15T18:09:33.745Z,17.68
2023-04-15T18:12:02.150Z,17.72
2023-04-15T18:14:34.583Z,17.74
2023-04-15T18:17:05.462Z,17.76
2023-04-15T18:19:32.727Z,17.75
2023-04-15T18:22:03.357Z,17.77
2023-04-15T18:24:30.473Z,17.73
2023-04-15T18:26:57.600Z,17.72
2023-04-15T18:29:25.457Z,17.73
2023-04-15T18:31:53.090Z,17.74
2023-04-15T18:34:20.292Z,17.70
2023-04-15T18:36:47.233Z,17.70
2023-04-15T18:39:14.541Z,17.73
2023-04-15T18:41:41.433Z,17.76
2023-04-15T18:44:08.488Z,17.75
2023-04-15T18:46:35.541Z,17.74
2023-04-15T18:49:02.645Z,17.67
2023-04-15T18:51:30.164Z,17.66
2023-04-15T18:53:57.188Z,17.70
2023-04-15T18:56:24.262Z,17.70
2023-04-15T18:59:08.948Z,17.70
2023-04-15T19:01:38.230Z,17.70
2023-04-15T19:04:05.424Z,17.73
2023-04-15T19:06:32.478Z,17.70
2023-04-15T19:08:59.514Z,17.66
2023-04-15T19:11:26.540Z,17.63
2023-04-15T19:13:53.724Z,17.61
2023-04-15T19:16:21.144Z,17.65
2023-04-15T19:18:48.181Z,17.67
2023-04-15T19:21:15.632Z,17.68
2023-04-15T19:23:43.348Z,17.69
2023-04-15T19:26:11.694Z,17.70
2023-04-15T19:28:38.689Z,17.71
2023-04-15T19:31:06.848Z,17.73
2023-04-15T19:33:33.918Z,17.74
2023-04-15T19:36:05.962Z,17.73
2023-04-15T19:38:37.591Z,17.73
2023-04-15T19:41:04.623Z,17.70
2023-04-15T19:43:32.964Z,17.67
2023-04-15T19:46:00.245Z,17.65
2023-04-15T19:48:27.354Z,17.65
2023-04-15T19:50:54.320Z,17.61
2023-04-15T19:53:21.233Z,17.61
2023-04-15T19:55:49.105Z,17.59
2023-04-15T19:58:16.261Z,17.58
2023-04-15T20:00:43.328Z,17.54
2023-04-15T20:03:10.859Z,17.47
2023-04-15T20:05:41.078Z,17.40
2023-04-15T20:08:08.343Z,17.40
2023-04-15T20:10:36.952Z,17.38
2023-04-15T20:13:04.213Z,17.33
2023-04-15T20:15:31.497Z,17.34
2023-04-15T20:17:58.528Z,17.32
2023-04-15T20:20:25.682Z,17.27
2023-04-15T20:22:53.247Z,17.21
2023-04-15T20:25:20.606Z,17.20
2023-04-15T20:27:47.530Z,17.16
2023-04-15T20:30:14.606Z,17.08
2023-04-15T20:32:41.944Z,17.07
2023-04-15T20:35:09.202Z,17.04
2023-04-15T20:37:40.708Z,17.02
2023-04-15T20:40:08.495Z,17.00
2023-04-15T20:42:35.563Z,17.03
2023-04-15T20:45:02.895Z,17.02
2023-04-15T20:47:30.375Z,17.04
2023-04-15T20:49:57.445Z,17.06
2023-04-15T20:52:24.407Z,17.08
2023-04-15T20:54:51.718Z,17.12
2023-04-15T20:57:20.356Z,17.13
2023-04-15T20:59:47.669Z,17.12
2023-04-15T21:02:14.760Z,17.06
2023-04-15T21:04:41.931Z,17.05
2023-04-15T21:07:10.211Z,17.02
2023-04-15T21:09:38.702Z,17.01
2023-04-15T21:12:05.639Z,16.99
2023-04-15T21:14:32.665Z,17.00
2023-04-15T21:16:59.717Z,16.97
2023-04-15T21:19:26.938Z,16.97
2023-04-15T21:21:53.944Z,16.95
2023-04-15T21:24:20.961Z,16.94
2023-04-15T21:26:47.894Z,16.94
2023-04-15T21:29:14.966Z,16.94
2023-04-15T21:31:42.182Z,16.93
2023-04-15T21:34:14.904Z,16.91
2023-04-15T21:36:44.719Z,16.88
2023-04-15T21:39:11.607Z,16.88
2023-04-15T21:41:38.573Z,16.88
2023-04-15T21:44:05.809Z,16.83
2023-04-15T21:46:35.517Z,16.84
2023-04-15T21:49:03.700Z,16.79
2023-04-15T21:51:31.757Z,16.79
2023-04-15T21:53:59.375Z,16.78
2023-04-15T21:56:26.650Z,16.81
2023-04-15T21:58:59.054Z,16.79
2023-04-15T22:01:27.104Z,16.79
2023-04-15T22:03:54.398Z,16.77
2023-04-15T22:06:21.875Z,16.77
2023-04-15T22:08:57.358Z,16.78
2023-04-15T22:11:28.639Z,16.77
2023-04-15T22:13:57.476Z,16.77
2023-04-15T22:16:27.978Z,16.77
2023-04-15T22:18:55.883Z,16.74
2023-04-15T22:21:23.427Z,16.75
2023-04-15T22:23:51.597Z,16.75
2023-04-15T22:26:18.852Z,16.73
2023-04-15T22:28:45.958Z,16.72
2023-04-15T22:31:14.354Z,16.70
2023-04-15T22:33:41.501Z,16.68
2023-04-15T22:36:08.630Z,16.65
2023-04-15T22:38:35.879Z,16.64
2023-04-15T22:41:02.798Z,16.63
2023-04-15T22:43:29.846Z,16.62
2023-04-15T22:45:56.917Z,16.62
2023-04-15T22:48:23.999Z,16.60
2023-04-15T22:50:51.045Z,16.60
2023-04-15T22:53:20.779Z,16.57
2023-04-15T22:55:48.859Z,16.53
2023-04-15T22:58:17.283Z,16.50
2023-04-15T23:00:44.980Z,16.43
2023-04-15T23:03:12.188Z,16.42
2023-04-15T23:05:41.382Z,16.40
2023-04-15T23:08:11.296Z,16.43
2023-04-15T23:10:40.188Z,16.40
2023-04-15T23:13:07.174Z,16.41
2023-04-15T23:15:34.076Z,16.42
2023-04-15T23:18:02.287Z,16.39
2023-04-15T23:20:29.312Z,16.39
2023-04-15T23:22:56.469Z,16.39
2023-04-15T23:25:23.536Z,16.39
2023-04-15T23:27:50.584Z,16.39
2023-04-15T23:30:17.466Z,16.38
2023-04-15T23:32:44.483Z,16.38
2023-04-15T23:35:11.420Z,16.38
2023-04-15T23:37:38.447Z,16.40
2023-04-15T23:40:06.043Z,16.36
2023-04-15T23:42:33.216Z,16.36
2023-04-15T23:45:00.165Z,16.35
2023-04-15T23:47:27.415Z,16.27
2023-04-15T23:49:54.417Z,16.27
2023-04-15T23:52:21.410Z,16.23
2023-04-15T23:54:48.433Z,16.22
2023-04-15T23:57:15.689Z,16.20
2023-04-15T23:59:45.637Z,16.18
